Airfield :
LOGIN :

Register | Disclaimer

   EN    FR    IT 

 










Legend :    VFR   Marginal VFR   IFR   Intensive IFR   Very Intensive IFR
Visi :
Ceiling :
>= 8 km
>= 3000ft
5 to 8 km
1000 to 3000 ft
1500m to 5 km
500 to 1000 ft
800 to 1500m
200 to 500 ft
< 800m
< 200 ft
Symbols :   Thunderstorms  Fog  Heavy snow  Heavy precipitations  Wind > 20 kt
SIGMETs :     Misc.  Thunderstorms  Icing  Turbulence  Mountain Waves  Volcanic Ashes






- Airport Elevation : 270 ft
- IATA code : OXF


EGTK - Oxford (Kidlington)

CURRENT METAR :
  • 281620Z 08010KT 050V110 CAVOK 22/04 Q1031

EXPIRED METARs :
  • 281550Z 08010KT 040V100 CAVOK 22/04 Q1031
  • 281520Z 07008KT 040V120 CAVOK 22/04 Q1031
  • 281450Z 10007KT 060V120 CAVOK 22/05 Q1031
  • 281420Z 10006KT 020V160 CAVOK 22/06 Q1032
  • 281350Z 08006KT 030V150 CAVOK 22/05 Q1032
  • 281320Z 10006KT 050V140 CAVOK 21/05 Q1032

TAF TAF EGTK
Valid from the 28 at 15:00 until the 28 at 18:00 UTC


281359Z 2815/2818 10008KT CAVOK



MET'MAP, your aeronautical weather chart ! - Copyright ORBIFLY December 2007 - Disclaimer

ORBIFLY MET'MAP TEAM :

Programming & Development : Alexandra Zaïnal
Concept & original design : Baudouin d'Aumeries
Assistance for programming : Marc-Olivier Méhu
Technical & hardware support : Manuel Goepfert

Contact : metmap@orbifly.com




SOURCES & CREDITS :

   NOAA